PST,Max TemperatureF,Mean TemperatureF,Min TemperatureF,Max Dew PointF,MeanDew PointF,Min DewpointF,Max Humidity, Mean Humidity, Min Humidity, Max Sea Level PressureIn, Mean Sea Level PressureIn, Min Sea Level PressureIn, Max VisibilityMiles, Mean VisibilityMiles, Min VisibilityMiles, Max Wind SpeedMPH, Mean Wind SpeedMPH, Max Gust SpeedMPH,PrecipitationIn, CloudCover, Events, WindDirDegrees
2013-12-1,51,36,21,28,24,19,92,64,35,30.43,30.33,30.20,10,10,10,23,7,27,0.00,0,,229
2013-12-2,57,45,32,36,25,13,75,47,18,30.16,29.82,29.65,10,9,2,37,16,45,0.06,4,Rain-Snow,244
2013-12-3,34,21,8,24,16,4,88,74,60,29.92,29.78,29.68,10,5,1,18,6,23,0.18,7,Snow,56
2013-12-4,18,10,1,7,2,-3,87,71,54,30.22,30.12,29.94,10,10,10,12,4,14,T,6,,239
2013-12-5,17,9,1,6,1,-4,83,67,51,30.24,30.19,30.15,10,10,10,12,4,15,T,8,,238
2013-12-6,22,10,-2,10,2,-7,87,67,47,30.19,30.10,29.83,10,10,10,16,3,23,0.00,6,,21
2013-12-7,25,13,1,21,14,-2,86,71,56,30.17,29.73,29.57,10,6,0,18,8,23,0.07,7,Fog-Snow,229
2013-12-8,14,6,-3,4,0,-6,80,72,64,30.50,30.32,30.11,10,10,6,17,6,19,T,5,,227
2013-12-9,14,1,-12,0,-7,-16,82,69,55,30.79,30.68,30.43,10,9,2,12,4,13,0.00,0,,217
2013-12-10,18,4,-11,3,-6,-16,79,66,53,30.73,30.64,30.54,10,10,10,9,3,12,0.00,0,,101
2013-12-11,25,9,-7,9,-1,-12,83,67,50,30.74,30.66,30.61,10,10,10,9,5,17,0.00,0,,66
2013-12-12,24,10,-4,9,0,-9,87,71,54,30.66,30.53,30.41,10,10,10,10,4,11,0.00,0,,74
2013-12-13,34,17,0,20,7,-2,91,74,56,30.65,30.50,30.39,10,8,0,13,4,15,0.00,3,Fog,176
2013-12-14,29,15,1,18,7,-2,87,75,63,30.79,30.68,30.49,10,8,1,8,2,9,0.00,1,,163
2013-12-15,32,17,2,17,6,-2,91,75,58,30.79,30.66,30.47,10,9,2,9,3,12,0.00,2,,100
2013-12-16,33,16,-1,17,7,-3,95,72,49,30.78,30.69,30.61,10,10,8,7,2,9,0.00,0,,98
2013-12-17,33,22,10,19,11,0,88,61,33,30.69,30.48,30.29,10,9,1,12,3,13,0.00,0,,95
2013-12-18,33,22,10,31,19,7,89,76,63,30.27,29.99,29.67,10,8,4,10,3,12,0.21,5,Rain,167
2013-12-19,34,23,11,32,19,7,96,72,47,30.09,29.84,29.64,10,9,3,20,9,26,0.01,4,Rain,351
2013-12-20,26,15,4,21,13,0,88,74,60,30.20,30.04,29.86,10,8,1,16,8,20,0.06,4,Snow,230
2013-12-21,40,32,23,31,25,21,92,78,64,30.17,29.96,29.82,10,8,1,20,10,27,0.03,7,Snow,225
2013-12-22,39,32,25,30,28,22,92,78,64,30.43,30.29,30.11,10,10,10,20,7,23,0.00,6,,222
2013-12-23,45,35,24,32,28,22,92,75,58,30.51,30.45,30.39,10,10,10,9,3,10,T,3,,242
2013-12-24,45,33,21,28,25,17,85,65,45,30.60,30.51,30.40,10,10,10,13,5,15,0.00,1,,220
2013-12-25,40,28,15,23,17,11,88,66,44,30.73,30.64,30.57,10,10,10,7,2,7,0.00,0,,85
2013-12-26,37,24,11,21,15,8,92,72,52,30.68,30.61,30.55,10,10,10,8,2,10,0.00,0,,78
2013-12-27,38,26,13,22,17,9,88,68,48,30.60,30.46,30.25,10,10,10,8,3,9,0.00,0,,91
2013-12-28,44,31,18,22,18,12,91,67,43,30.43,30.31,30.22,10,10,10,14,4,18,0.00,0,,300
2013-12-29,35,22,9,19,13,5,84,66,47,30.55,30.48,30.42,10,10,10,12,3,14,0.00,0,,142
2013-12-30,44,28,12,20,15,9,84,57,29,30.54,30.43,30.33,10,10,10,8,1,10,0.00,0,,89
2013-12-31,42,32,22,24,20,17,88,67,46,30.41,30.35,30.27,10,10,10,13,4,13,0.00,3,,213